sensor_id;sensor_type;location;lat;lon;timestamp;P1;durP1;ratioP1;P2;durP2;ratioP2
34673;SDS011;20879;55.668;37.858;2023-02-28T00:00:15;10.40;;;5.75;;
34673;SDS011;20879;55.668;37.858;2023-02-28T00:02:51;8.27;;;5.10;;
34673;SDS011;20879;55.668;37.858;2023-02-28T00:05:21;10.93;;;5.10;;
34673;SDS011;20879;55.668;37.858;2023-02-28T00:07:51;9.13;;;5.28;;
34673;SDS011;20879;55.668;37.858;2023-02-28T00:10:22;9.70;;;5.38;;
34673;SDS011;20879;55.668;37.858;2023-02-28T00:12:54;8.70;;;4.95;;
34673;SDS011;20879;55.668;37.858;2023-02-28T00:15:27;8.15;;;5.07;;
34673;SDS011;20879;55.668;37.858;2023-02-28T00:17:56;9.57;;;6.05;;
34673;SDS011;20879;55.668;37.858;2023-02-28T00:20:29;10.05;;;5.53;;
34673;SDS011;20879;55.668;37.858;2023-02-28T00:22:58;8.80;;;5.07;;
34673;SDS011;20879;55.668;37.858;2023-02-28T00:25:27;8.07;;;5.25;;
34673;SDS011;20879;55.668;37.858;2023-02-28T00:27:56;11.75;;;5.90;;
34673;SDS011;20879;55.668;37.858;2023-02-28T00:30:28;8.63;;;5.10;;
34673;SDS011;20879;55.668;37.858;2023-02-28T00:32:57;9.00;;;5.00;;
34673;SDS011;20879;55.668;37.858;2023-02-28T00:35:27;10.85;;;5.63;;
34673;SDS011;20879;55.668;37.858;2023-02-28T00:37:56;9.05;;;5.35;;
34673;SDS011;20879;55.668;37.858;2023-02-28T00:40:26;10.02;;;5.80;;
34673;SDS011;20879;55.668;37.858;2023-02-28T00:42:56;10.43;;;5.90;;
34673;SDS011;20879;55.668;37.858;2023-02-28T00:45:27;11.15;;;6.20;;
34673;SDS011;20879;55.668;37.858;2023-02-28T00:47:57;9.52;;;5.93;;
34673;SDS011;20879;55.668;37.858;2023-02-28T00:50:26;12.15;;;5.47;;
34673;SDS011;20879;55.668;37.858;2023-02-28T00:52:56;14.77;;;6.78;;
34673;SDS011;20879;55.668;37.858;2023-02-28T00:55:26;12.27;;;6.05;;
34673;SDS011;20879;55.668;37.858;2023-02-28T00:57:55;10.52;;;5.32;;
34673;SDS011;20879;55.668;37.858;2023-02-28T01:00:24;12.10;;;6.25;;
34673;SDS011;20879;55.668;37.858;2023-02-28T01:02:55;9.82;;;5.18;;
34673;SDS011;20879;55.668;37.858;2023-02-28T01:05:25;12.85;;;7.07;;
34673;SDS011;20879;55.668;37.858;2023-02-28T01:07:54;15.05;;;7.47;;
34673;SDS011;20879;55.668;37.858;2023-02-28T01:10:24;14.45;;;7.93;;
34673;SDS011;20879;55.668;37.858;2023-02-28T01:12:57;13.88;;;7.40;;
34673;SDS011;20879;55.668;37.858;2023-02-28T01:15:26;15.35;;;8.57;;
34673;SDS011;20879;55.668;37.858;2023-02-28T01:17:58;17.75;;;9.18;;
34673;SDS011;20879;55.668;37.858;2023-02-28T01:20:30;16.25;;;8.00;;
34673;SDS011;20879;55.668;37.858;2023-02-28T01:23:00;15.88;;;9.00;;
34673;SDS011;20879;55.668;37.858;2023-02-28T01:25:35;17.38;;;8.48;;
34673;SDS011;20879;55.668;37.858;2023-02-28T01:28:04;12.02;;;6.32;;
34673;SDS011;20879;55.668;37.858;2023-02-28T01:30:34;10.32;;;6.05;;
34673;SDS011;20879;55.668;37.858;2023-02-28T01:33:05;13.68;;;6.93;;
34673;SDS011;20879;55.668;37.858;2023-02-28T01:35:41;14.45;;;6.78;;
34673;SDS011;20879;55.668;37.858;2023-02-28T01:38:10;12.55;;;6.57;;
34673;SDS011;20879;55.668;37.858;2023-02-28T01:40:48;12.38;;;6.93;;
34673;SDS011;20879;55.668;37.858;2023-02-28T01:43:24;13.18;;;6.80;;
34673;SDS011;20879;55.668;37.858;2023-02-28T01:45:55;10.43;;;6.20;;
34673;SDS011;20879;55.668;37.858;2023-02-28T01:48:29;10.15;;;6.18;;
34673;SDS011;20879;55.668;37.858;2023-02-28T01:51:02;12.57;;;6.10;;
34673;SDS011;20879;55.668;37.858;2023-02-28T01:53:36;10.50;;;5.63;;
34673;SDS011;20879;55.668;37.858;2023-02-28T01:56:12;13.25;;;6.40;;
34673;SDS011;20879;55.668;37.858;2023-02-28T01:58:48;13.10;;;6.95;;
34673;SDS011;20879;55.668;37.858;2023-02-28T02:01:20;10.95;;;5.05;;
34673;SDS011;20879;55.668;37.858;2023-02-28T02:03:55;10.43;;;5.53;;
34673;SDS011;20879;55.668;37.858;2023-02-28T02:06:34;9.90;;;5.60;;
34673;SDS011;20879;55.668;37.858;2023-02-28T02:09:09;11.25;;;5.95;;
34673;SDS011;20879;55.668;37.858;2023-02-28T02:11:39;11.73;;;5.93;;
34673;SDS011;20879;55.668;37.858;2023-02-28T02:17:12;11.18;;;6.05;;
34673;SDS011;20879;55.668;37.858;2023-02-28T02:20:00;12.82;;;5.55;;
34673;SDS011;20879;55.668;37.858;2023-02-28T02:25:50;7.13;;;4.45;;
34673;SDS011;20879;55.668;37.858;2023-02-28T02:28:32;8.77;;;4.97;;
34673;SDS011;20879;55.668;37.858;2023-02-28T02:34:30;10.02;;;5.70;;
34673;SDS011;20879;55.668;37.858;2023-02-28T02:37:10;9.60;;;5.07;;
34673;SDS011;20879;55.668;37.858;2023-02-28T02:39:57;9.95;;;5.63;;
34673;SDS011;20879;55.668;37.858;2023-02-28T02:42:36;9.30;;;5.43;;
34673;SDS011;20879;55.668;37.858;2023-02-28T02:45:17;7.22;;;4.18;;
34673;SDS011;20879;55.668;37.858;2023-02-28T02:47:53;9.95;;;5.45;;
34673;SDS011;20879;55.668;37.858;2023-02-28T02:50:31;8.07;;;4.30;;
34673;SDS011;20879;55.668;37.858;2023-02-28T02:53:05;7.47;;;4.80;;
34673;SDS011;20879;55.668;37.858;2023-02-28T02:55:39;7.55;;;4.00;;
34673;SDS011;20879;55.668;37.858;2023-02-28T02:58:14;10.07;;;5.28;;
34673;SDS011;20879;55.668;37.858;2023-02-28T03:00:47;6.53;;;3.28;;
34673;SDS011;20879;55.668;37.858;2023-02-28T03:03:21;9.98;;;5.55;;
34673;SDS011;20879;55.668;37.858;2023-02-28T03:06:03;8.35;;;5.00;;
34673;SDS011;20879;55.668;37.858;2023-02-28T03:08:39;7.00;;;4.35;;
34673;SDS011;20879;55.668;37.858;2023-02-28T03:11:13;10.68;;;5.20;;
34673;SDS011;20879;55.668;37.858;2023-02-28T03:13:47;8.13;;;4.05;;
34673;SDS011;20879;55.668;37.858;2023-02-28T03:16:54;8.60;;;4.90;;
34673;SDS011;20879;55.668;37.858;2023-02-28T03:19:47;9.60;;;5.13;;
34673;SDS011;20879;55.668;37.858;2023-02-28T03:22:35;6.10;;;3.28;;
34673;SDS011;20879;55.668;37.858;2023-02-28T03:25:20;5.80;;;3.85;;
34673;SDS011;20879;55.668;37.858;2023-02-28T03:28:00;8.35;;;4.25;;
34673;SDS011;20879;55.668;37.858;2023-02-28T03:30:39;6.90;;;4.22;;
34673;SDS011;20879;55.668;37.858;2023-02-28T03:33:20;8.50;;;4.50;;
34673;SDS011;20879;55.668;37.858;2023-02-28T03:35:55;7.88;;;4.32;;
34673;SDS011;20879;55.668;37.858;2023-02-28T03:38:31;6.68;;;4.18;;
34673;SDS011;20879;55.668;37.858;2023-02-28T03:41:06;10.50;;;4.38;;
34673;SDS011;20879;55.668;37.858;2023-02-28T03:43:43;6.80;;;3.83;;
34673;SDS011;20879;55.668;37.858;2023-02-28T03:46:18;7.30;;;4.60;;
34673;SDS011;20879;55.668;37.858;2023-02-28T03:49:00;8.47;;;3.87;;
34673;SDS011;20879;55.668;37.858;2023-02-28T03:51:34;8.23;;;3.78;;
34673;SDS011;20879;55.668;37.858;2023-02-28T03:54:09;7.18;;;3.92;;
34673;SDS011;20879;55.668;37.858;2023-02-28T03:56:43;6.82;;;4.57;;
34673;SDS011;20879;55.668;37.858;2023-02-28T04:01:56;8.50;;;4.07;;
34673;SDS011;20879;55.668;37.858;2023-02-28T04:04:27;7.32;;;3.17;;
34673;SDS011;20879;55.668;37.858;2023-02-28T04:07:00;6.18;;;3.97;;
34673;SDS011;20879;55.668;37.858;2023-02-28T04:09:32;6.32;;;3.97;;
34673;SDS011;20879;55.668;37.858;2023-02-28T04:12:02;6.07;;;3.70;;
34673;SDS011;20879;55.668;37.858;2023-02-28T04:14:31;6.30;;;3.22;;
34673;SDS011;20879;55.668;37.858;2023-02-28T04:17:06;5.88;;;3.20;;
34673;SDS011;20879;55.668;37.858;2023-02-28T04:19:35;6.55;;;3.30;;
34673;SDS011;20879;55.668;37.858;2023-02-28T04:22:09;8.50;;;4.65;;
34673;SDS011;20879;55.668;37.858;2023-02-28T04:24:46;7.15;;;3.80;;
34673;SDS011;20879;55.668;37.858;2023-02-28T04:27:16;7.95;;;4.10;;
34673;SDS011;20879;55.668;37.858;2023-02-28T04:29:45;7.68;;;3.90;;
34673;SDS011;20879;55.668;37.858;2023-02-28T04:32:14;5.72;;;3.75;;
34673;SDS011;20879;55.668;37.858;2023-02-28T04:34:43;4.93;;;3.53;;
34673;SDS011;20879;55.668;37.858;2023-02-28T04:37:12;4.80;;;3.33;;
34673;SDS011;20879;55.668;37.858;2023-02-28T04:39:42;7.10;;;3.78;;
34673;SDS011;20879;55.668;37.858;2023-02-28T04:42:13;5.47;;;3.60;;
34673;SDS011;20879;55.668;37.858;2023-02-28T04:44:43;6.03;;;3.85;;
34673;SDS011;20879;55.668;37.858;2023-02-28T04:47:13;4.88;;;3.38;;
34673;SDS011;20879;55.668;37.858;2023-02-28T04:49:42;5.18;;;3.22;;
34673;SDS011;20879;55.668;37.858;2023-02-28T04:52:11;5.05;;;3.30;;
34673;SDS011;20879;55.668;37.858;2023-02-28T04:54:41;7.00;;;3.78;;
34673;SDS011;20879;55.668;37.858;2023-02-28T04:57:10;5.65;;;3.65;;
34673;SDS011;20879;55.668;37.858;2023-02-28T04:59:47;6.30;;;3.45;;
34673;SDS011;20879;55.668;37.858;2023-02-28T05:02:16;5.20;;;3.38;;
34673;SDS011;20879;55.668;37.858;2023-02-28T05:04:47;3.85;;;2.63;;
34673;SDS011;20879;55.668;37.858;2023-02-28T05:07:16;5.10;;;2.67;;
34673;SDS011;20879;55.668;37.858;2023-02-28T05:09:45;3.40;;;2.70;;
34673;SDS011;20879;55.668;37.858;2023-02-28T05:12:14;4.70;;;3.35;;
34673;SDS011;20879;55.668;37.858;2023-02-28T05:14:44;4.60;;;2.70;;
34673;SDS011;20879;55.668;37.858;2023-02-28T05:17:20;4.70;;;2.92;;
34673;SDS011;20879;55.668;37.858;2023-02-28T05:19:55;4.28;;;2.38;;
34673;SDS011;20879;55.668;37.858;2023-02-28T05:22:46;3.20;;;2.40;;
34673;SDS011;20879;55.668;37.858;2023-02-28T05:25:16;4.80;;;3.05;;
34673;SDS011;20879;55.668;37.858;2023-02-28T05:27:47;5.70;;;3.30;;
34673;SDS011;20879;55.668;37.858;2023-02-28T05:30:22;6.20;;;3.35;;
34673;SDS011;20879;55.668;37.858;2023-02-28T05:32:53;5.03;;;3.00;;
34673;SDS011;20879;55.668;37.858;2023-02-28T05:35:23;3.58;;;2.47;;
34673;SDS011;20879;55.668;37.858;2023-02-28T05:37:53;5.95;;;3.72;;
34673;SDS011;20879;55.668;37.858;2023-02-28T05:40:22;5.22;;;3.00;;
34673;SDS011;20879;55.668;37.858;2023-02-28T05:42:58;4.68;;;2.88;;
34673;SDS011;20879;55.668;37.858;2023-02-28T05:45:27;3.97;;;2.88;;
34673;SDS011;20879;55.668;37.858;2023-02-28T05:48:05;4.55;;;2.83;;
34673;SDS011;20879;55.668;37.858;2023-02-28T05:53:03;6.35;;;2.70;;
34673;SDS011;20879;55.668;37.858;2023-02-28T05:55:33;3.08;;;2.33;;
34673;SDS011;20879;55.668;37.858;2023-02-28T05:58:03;2.20;;;1.90;;
34673;SDS011;20879;55.668;37.858;2023-02-28T06:00:32;5.05;;;3.42;;
34673;SDS011;20879;55.668;37.858;2023-02-28T06:03:02;5.43;;;3.45;;
34673;SDS011;20879;55.668;37.858;2023-02-28T06:05:33;3.38;;;1.92;;
34673;SDS011;20879;55.668;37.858;2023-02-28T06:08:02;4.82;;;2.78;;
34673;SDS011;20879;55.668;37.858;2023-02-28T06:10:33;6.25;;;3.00;;
34673;SDS011;20879;55.668;37.858;2023-02-28T06:13:02;5.60;;;3.00;;
34673;SDS011;20879;55.668;37.858;2023-02-28T06:15:32;7.07;;;4.03;;
34673;SDS011;20879;55.668;37.858;2023-02-28T06:18:01;4.38;;;2.65;;
34673;SDS011;20879;55.668;37.858;2023-02-28T06:20:38;5.38;;;2.83;;
34673;SDS011;20879;55.668;37.858;2023-02-28T06:23:08;5.40;;;2.80;;
34673;SDS011;20879;55.668;37.858;2023-02-28T06:25:38;4.97;;;2.38;;
34673;SDS011;20879;55.668;37.858;2023-02-28T06:28:07;5.05;;;1.95;;
34673;SDS011;20879;55.668;37.858;2023-02-28T06:30:36;4.80;;;2.78;;
34673;SDS011;20879;55.668;37.858;2023-02-28T06:33:07;5.35;;;3.05;;
34673;SDS011;20879;55.668;37.858;2023-02-28T06:35:43;3.50;;;1.85;;
34673;SDS011;20879;55.668;37.858;2023-02-28T06:38:12;4.85;;;2.70;;
34673;SDS011;20879;55.668;37.858;2023-02-28T06:40:42;2.45;;;1.83;;
34673;SDS011;20879;55.668;37.858;2023-02-28T06:43:17;3.60;;;2.28;;
34673;SDS011;20879;55.668;37.858;2023-02-28T06:45:54;3.15;;;1.65;;
34673;SDS011;20879;55.668;37.858;2023-02-28T06:48:26;3.22;;;2.05;;
34673;SDS011;20879;55.668;37.858;2023-02-28T06:51:03;4.40;;;2.90;;
34673;SDS011;20879;55.668;37.858;2023-02-28T06:53:34;2.25;;;1.80;;
34673;SDS011;20879;55.668;37.858;2023-02-28T06:56:05;2.88;;;1.95;;
34673;SDS011;20879;55.668;37.858;2023-02-28T06:58:35;2.35;;;1.83;;
34673;SDS011;20879;55.668;37.858;2023-02-28T07:01:05;2.65;;;2.20;;
34673;SDS011;20879;55.668;37.858;2023-02-28T07:03:38;3.50;;;2.25;;
34673;SDS011;20879;55.668;37.858;2023-02-28T07:06:07;6.35;;;3.63;;
34673;SDS011;20879;55.668;37.858;2023-02-28T07:08:43;3.65;;;2.22;;
34673;SDS011;20879;55.668;37.858;2023-02-28T07:11:13;3.80;;;2.38;;
34673;SDS011;20879;55.668;37.858;2023-02-28T07:13:42;4.65;;;2.80;;
34673;SDS011;20879;55.668;37.858;2023-02-28T07:16:13;3.10;;;1.92;;
34673;SDS011;20879;55.668;37.858;2023-02-28T07:18:45;4.97;;;2.03;;
34673;SDS011;20879;55.668;37.858;2023-02-28T07:21:19;2.70;;;1.58;;
34673;SDS011;20879;55.668;37.858;2023-02-28T07:23:48;4.72;;;2.63;;
34673;SDS011;20879;55.668;37.858;2023-02-28T07:26:18;2.88;;;2.13;;
34673;SDS011;20879;55.668;37.858;2023-02-28T07:28:48;5.45;;;1.90;;
34673;SDS011;20879;55.668;37.858;2023-02-28T07:31:17;4.22;;;2.50;;
34673;SDS011;20879;55.668;37.858;2023-02-28T07:33:49;5.72;;;2.60;;
34673;SDS011;20879;55.668;37.858;2023-02-28T07:36:19;3.78;;;2.38;;
34673;SDS011;20879;55.668;37.858;2023-02-28T07:38:48;2.45;;;1.58;;
34673;SDS011;20879;55.668;37.858;2023-02-28T07:41:20;6.30;;;2.08;;
34673;SDS011;20879;55.668;37.858;2023-02-28T07:46:29;2.80;;;2.08;;
34673;SDS011;20879;55.668;37.858;2023-02-28T07:49:10;3.30;;;2.38;;
34673;SDS011;20879;55.668;37.858;2023-02-28T07:51:40;3.25;;;2.30;;
34673;SDS011;20879;55.668;37.858;2023-02-28T07:54:09;4.75;;;3.10;;
34673;SDS011;20879;55.668;37.858;2023-02-28T07:56:38;3.15;;;2.17;;
34673;SDS011;20879;55.668;37.858;2023-02-28T07:59:08;3.35;;;2.38;;
34673;SDS011;20879;55.668;37.858;2023-02-28T08:01:37;2.65;;;2.03;;
34673;SDS011;20879;55.668;37.858;2023-02-28T08:04:13;4.82;;;2.63;;
34673;SDS011;20879;55.668;37.858;2023-02-28T08:06:42;3.15;;;2.10;;
34673;SDS011;20879;55.668;37.858;2023-02-28T08:09:12;4.00;;;2.90;;
34673;SDS011;20879;55.668;37.858;2023-02-28T08:11:41;4.35;;;2.17;;
34673;SDS011;20879;55.668;37.858;2023-02-28T08:14:16;4.18;;;2.42;;
34673;SDS011;20879;55.668;37.858;2023-02-28T08:16:45;3.28;;;2.33;;
34673;SDS011;20879;55.668;37.858;2023-02-28T08:19:16;5.22;;;2.65;;
34673;SDS011;20879;55.668;37.858;2023-02-28T08:21:45;3.50;;;2.13;;
34673;SDS011;20879;55.668;37.858;2023-02-28T08:24:14;4.50;;;2.72;;
34673;SDS011;20879;55.668;37.858;2023-02-28T08:26:44;3.65;;;2.58;;
34673;SDS011;20879;55.668;37.858;2023-02-28T08:29:13;3.72;;;2.45;;
34673;SDS011;20879;55.668;37.858;2023-02-28T08:31:42;4.20;;;2.85;;
34673;SDS011;20879;55.668;37.858;2023-02-28T08:34:13;7.93;;;2.58;;
34673;SDS011;20879;55.668;37.858;2023-02-28T08:36:46;3.30;;;2.40;;
34673;SDS011;20879;55.668;37.858;2023-02-28T08:39:15;4.43;;;2.40;;
34673;SDS011;20879;55.668;37.858;2023-02-28T08:41:46;4.25;;;2.20;;
34673;SDS011;20879;55.668;37.858;2023-02-28T08:44:32;5.55;;;2.40;;
34673;SDS011;20879;55.668;37.858;2023-02-28T08:47:01;3.97;;;2.88;;
34673;SDS011;20879;55.668;37.858;2023-02-28T08:49:30;4.25;;;2.88;;
34673;SDS011;20879;55.668;37.858;2023-02-28T08:52:07;4.25;;;2.78;;
34673;SDS011;20879;55.668;37.858;2023-02-28T08:54:37;2.00;;;1.80;;
34673;SDS011;20879;55.668;37.858;2023-02-28T08:57:06;3.63;;;2.58;;
34673;SDS011;20879;55.668;37.858;2023-02-28T08:59:41;4.93;;;2.90;;
34673;SDS011;20879;55.668;37.858;2023-02-28T09:02:12;4.50;;;3.00;;
34673;SDS011;20879;55.668;37.858;2023-02-28T09:04:42;4.40;;;2.88;;
34673;SDS011;20879;55.668;37.858;2023-02-28T09:07:13;3.95;;;2.72;;
34673;SDS011;20879;55.668;37.858;2023-02-28T09:09:43;3.90;;;2.42;;
34673;SDS011;20879;55.668;37.858;2023-02-28T09:12:33;3.83;;;2.45;;
34673;SDS011;20879;55.668;37.858;2023-02-28T09:15:04;4.38;;;2.50;;
34673;SDS011;20879;55.668;37.858;2023-02-28T09:17:35;5.55;;;2.60;;
34673;SDS011;20879;55.668;37.858;2023-02-28T09:20:05;4.45;;;3.20;;
34673;SDS011;20879;55.668;37.858;2023-02-28T09:22:37;5.87;;;3.00;;
34673;SDS011;20879;55.668;37.858;2023-02-28T09:25:07;3.50;;;2.80;;
34673;SDS011;20879;55.668;37.858;2023-02-28T09:27:36;7.82;;;3.30;;
34673;SDS011;20879;55.668;37.858;2023-02-28T09:30:11;3.70;;;2.20;;
34673;SDS011;20879;55.668;37.858;2023-02-28T09:32:41;4.77;;;2.80;;
34673;SDS011;20879;55.668;37.858;2023-02-28T09:35:21;4.70;;;2.63;;
34673;SDS011;20879;55.668;37.858;2023-02-28T09:37:53;4.53;;;2.80;;
34673;SDS011;20879;55.668;37.858;2023-02-28T09:40:22;7.00;;;2.90;;
34673;SDS011;20879;55.668;37.858;2023-02-28T09:42:55;4.90;;;2.65;;
34673;SDS011;20879;55.668;37.858;2023-02-28T09:45:27;7.00;;;3.20;;
34673;SDS011;20879;55.668;37.858;2023-02-28T09:48:01;5.63;;;2.78;;
34673;SDS011;20879;55.668;37.858;2023-02-28T09:50:38;9.23;;;3.05;;
34673;SDS011;20879;55.668;37.858;2023-02-28T09:53:13;5.10;;;3.20;;
34673;SDS011;20879;55.668;37.858;2023-02-28T09:55:48;4.38;;;2.95;;
34673;SDS011;20879;55.668;37.858;2023-02-28T09:58:28;5.05;;;2.53;;
34673;SDS011;20879;55.668;37.858;2023-02-28T10:01:03;4.45;;;2.97;;
34673;SDS011;20879;55.668;37.858;2023-02-28T10:03:39;2.92;;;1.83;;
34673;SDS011;20879;55.668;37.858;2023-02-28T10:06:12;5.22;;;2.08;;
34673;SDS011;20879;55.668;37.858;2023-02-28T10:09:00;3.97;;;2.13;;
34673;SDS011;20879;55.668;37.858;2023-02-28T10:11:32;2.58;;;1.80;;
34673;SDS011;20879;55.668;37.858;2023-02-28T10:14:04;4.25;;;2.67;;
34673;SDS011;20879;55.668;37.858;2023-02-28T10:16:42;3.13;;;1.90;;
34673;SDS011;20879;55.668;37.858;2023-02-28T10:19:24;1.85;;;1.50;;
34673;SDS011;20879;55.668;37.858;2023-02-28T10:22:08;5.40;;;2.28;;
34673;SDS011;20879;55.668;37.858;2023-02-28T10:24:45;3.22;;;2.17;;
34673;SDS011;20879;55.668;37.858;2023-02-28T10:27:20;3.33;;;2.20;;
34673;SDS011;20879;55.668;37.858;2023-02-28T10:29:51;4.72;;;2.20;;
34673;SDS011;20879;55.668;37.858;2023-02-28T10:32:22;5.35;;;2.03;;
34673;SDS011;20879;55.668;37.858;2023-02-28T10:34:55;3.15;;;2.15;;
34673;SDS011;20879;55.668;37.858;2023-02-28T10:37:37;2.60;;;1.85;;
34673;SDS011;20879;55.668;37.858;2023-02-28T10:40:25;3.90;;;2.40;;
34673;SDS011;20879;55.668;37.858;2023-02-28T10:43:05;5.60;;;2.65;;
34673;SDS011;20879;55.668;37.858;2023-02-28T10:45:55;3.25;;;2.10;;
34673;SDS011;20879;55.668;37.858;2023-02-28T10:48:36;5.13;;;2.42;;
34673;SDS011;20879;55.668;37.858;2023-02-28T10:51:09;3.35;;;2.22;;
34673;SDS011;20879;55.668;37.858;2023-02-28T10:53:45;4.50;;;2.30;;
34673;SDS011;20879;55.668;37.858;2023-02-28T10:56:29;6.25;;;3.08;;
34673;SDS011;20879;55.668;37.858;2023-02-28T10:59:24;4.45;;;1.92;;
34673;SDS011;20879;55.668;37.858;2023-02-28T11:04:33;4.35;;;2.90;;
34673;SDS011;20879;55.668;37.858;2023-02-28T11:07:14;4.88;;;3.00;;
34673;SDS011;20879;55.668;37.858;2023-02-28T11:09:55;2.92;;;1.90;;
34673;SDS011;20879;55.668;37.858;2023-02-28T11:12:28;4.63;;;2.40;;
34673;SDS011;20879;55.668;37.858;2023-02-28T11:15:07;4.13;;;2.70;;
34673;SDS011;20879;55.668;37.858;2023-02-28T11:17:53;2.72;;;1.95;;
34673;SDS011;20879;55.668;37.858;2023-02-28T11:20:23;6.00;;;3.15;;
34673;SDS011;20879;55.668;37.858;2023-02-28T11:22:57;4.60;;;2.40;;
34673;SDS011;20879;55.668;37.858;2023-02-28T11:25:30;3.97;;;2.28;;
34673;SDS011;20879;55.668;37.858;2023-02-28T11:28:22;2.08;;;1.60;;
34673;SDS011;20879;55.668;37.858;2023-02-28T11:31:04;3.38;;;2.35;;
34673;SDS011;20879;55.668;37.858;2023-02-28T11:33:46;4.07;;;2.78;;
34673;SDS011;20879;55.668;37.858;2023-02-28T11:36:23;4.60;;;2.70;;
34673;SDS011;20879;55.668;37.858;2023-02-28T11:38:55;3.67;;;2.42;;
34673;SDS011;20879;55.668;37.858;2023-02-28T11:41:34;4.25;;;2.78;;
34673;SDS011;20879;55.668;37.858;2023-02-28T11:44:24;4.38;;;2.60;;
34673;SDS011;20879;55.668;37.858;2023-02-28T11:47:06;3.78;;;2.53;;
34673;SDS011;20879;55.668;37.858;2023-02-28T11:49:46;4.28;;;2.42;;
34673;SDS011;20879;55.668;37.858;2023-02-28T11:52:34;5.10;;;2.80;;
34673;SDS011;20879;55.668;37.858;2023-02-28T11:55:13;3.75;;;2.75;;
34673;SDS011;20879;55.668;37.858;2023-02-28T11:58:00;3.00;;;2.13;;
34673;SDS011;20879;55.668;37.858;2023-02-28T12:00:57;5.32;;;3.10;;
34673;SDS011;20879;55.668;37.858;2023-02-28T12:03:43;5.90;;;2.85;;
34673;SDS011;20879;55.668;37.858;2023-02-28T12:06:23;3.88;;;2.38;;
34673;SDS011;20879;55.668;37.858;2023-02-28T12:09:00;8.05;;;2.60;;
34673;SDS011;20879;55.668;37.858;2023-02-28T12:11:40;6.60;;;4.03;;
34673;SDS011;20879;55.668;37.858;2023-02-28T12:17:27;6.68;;;2.80;;
34673;SDS011;20879;55.668;37.858;2023-02-28T12:20:08;4.25;;;2.85;;
34673;SDS011;20879;55.668;37.858;2023-02-28T12:22:51;3.13;;;2.40;;
34673;SDS011;20879;55.668;37.858;2023-02-28T12:28:27;3.80;;;2.30;;
34673;SDS011;20879;55.668;37.858;2023-02-28T12:31:01;4.43;;;2.78;;
34673;SDS011;20879;55.668;37.858;2023-02-28T12:33:38;2.92;;;2.40;;
34673;SDS011;20879;55.668;37.858;2023-02-28T12:36:13;3.75;;;2.88;;
34673;SDS011;20879;55.668;37.858;2023-02-28T12:38:48;4.85;;;3.42;;
34673;SDS011;20879;55.668;37.858;2023-02-28T12:41:24;4.68;;;2.83;;
34673;SDS011;20879;55.668;37.858;2023-02-28T12:44:00;4.43;;;2.38;;
34673;SDS011;20879;55.668;37.858;2023-02-28T12:53:05;7.45;;;2.92;;
34673;SDS011;20879;55.668;37.858;2023-02-28T12:55:40;6.90;;;3.35;;
34673;SDS011;20879;55.668;37.858;2023-02-28T12:58:15;5.15;;;3.20;;
34673;SDS011;20879;55.668;37.858;2023-02-28T13:01:05;5.80;;;2.95;;
34673;SDS011;20879;55.668;37.858;2023-02-28T13:04:17;4.78;;;2.97;;
34673;SDS011;20879;55.668;37.858;2023-02-28T13:07:12;3.58;;;2.85;;
34673;SDS011;20879;55.668;37.858;2023-02-28T13:10:04;4.65;;;2.83;;
34673;SDS011;20879;55.668;37.858;2023-02-28T13:12:36;4.70;;;3.00;;
34673;SDS011;20879;55.668;37.858;2023-02-28T13:15:18;4.55;;;2.42;;
34673;SDS011;20879;55.668;37.858;2023-02-28T13:17:51;5.10;;;3.47;;
34673;SDS011;20879;55.668;37.858;2023-02-28T13:20:23;3.17;;;2.70;;
34673;SDS011;20879;55.668;37.858;2023-02-28T13:22:54;3.17;;;2.60;;
34673;SDS011;20879;55.668;37.858;2023-02-28T13:34:34;3.05;;;2.42;;
34673;SDS011;20879;55.668;37.858;2023-02-28T13:43:05;4.23;;;3.00;;
34673;SDS011;20879;55.668;37.858;2023-02-28T13:45:53;3.28;;;2.30;;
34673;SDS011;20879;55.668;37.858;2023-02-28T13:48:41;3.20;;;2.55;;
34673;SDS011;20879;55.668;37.858;2023-02-28T13:51:30;2.17;;;1.80;;
34673;SDS011;20879;55.668;37.858;2023-02-28T13:54:16;3.83;;;2.70;;
34673;SDS011;20879;55.668;37.858;2023-02-28T13:56:56;10.40;;;3.20;;
34673;SDS011;20879;55.668;37.858;2023-02-28T13:59:43;4.32;;;2.60;;
34673;SDS011;20879;55.668;37.858;2023-02-28T14:05:13;5.63;;;3.08;;
34673;SDS011;20879;55.668;37.858;2023-02-28T14:07:45;4.50;;;2.92;;
34673;SDS011;20879;55.668;37.858;2023-02-28T14:10:22;4.47;;;2.55;;
34673;SDS011;20879;55.668;37.858;2023-02-28T14:13:01;4.18;;;2.83;;
34673;SDS011;20879;55.668;37.858;2023-02-28T14:15:57;3.28;;;2.90;;
34673;SDS011;20879;55.668;37.858;2023-02-28T14:18:34;3.05;;;2.10;;
34673;SDS011;20879;55.668;37.858;2023-02-28T14:21:12;6.10;;;3.17;;
34673;SDS011;20879;55.668;37.858;2023-02-28T14:27:21;4.07;;;2.90;;
34673;SDS011;20879;55.668;37.858;2023-02-28T14:30:13;5.10;;;3.00;;
34673;SDS011;20879;55.668;37.858;2023-02-28T14:33:04;5.90;;;2.47;;
34673;SDS011;20879;55.668;37.858;2023-02-28T14:35:47;3.65;;;2.70;;
34673;SDS011;20879;55.668;37.858;2023-02-28T14:38:27;4.43;;;2.42;;
34673;SDS011;20879;55.668;37.858;2023-02-28T14:41:01;4.00;;;2.42;;
34673;SDS011;20879;55.668;37.858;2023-02-28T14:46:23;3.58;;;2.13;;
34673;SDS011;20879;55.668;37.858;2023-02-28T14:51:40;5.40;;;3.08;;
34673;SDS011;20879;55.668;37.858;2023-02-28T14:54:12;8.27;;;3.72;;
34673;SDS011;20879;55.668;37.858;2023-02-28T14:56:43;5.70;;;3.03;;
34673;SDS011;20879;55.668;37.858;2023-02-28T14:59:25;4.00;;;3.25;;
34673;SDS011;20879;55.668;37.858;2023-02-28T15:02:17;4.68;;;2.60;;
34673;SDS011;20879;55.668;37.858;2023-02-28T15:04:54;7.63;;;3.03;;
34673;SDS011;20879;55.668;37.858;2023-02-28T15:07:25;4.30;;;2.53;;
34673;SDS011;20879;55.668;37.858;2023-02-28T15:12:49;4.35;;;3.08;;
34673;SDS011;20879;55.668;37.858;2023-02-28T15:15:22;4.50;;;2.92;;
34673;SDS011;20879;55.668;37.858;2023-02-28T15:18:06;4.15;;;2.10;;
34673;SDS011;20879;55.668;37.858;2023-02-28T15:20:42;5.05;;;3.30;;
34673;SDS011;20879;55.668;37.858;2023-02-28T15:23:13;4.22;;;2.85;;
34673;SDS011;20879;55.668;37.858;2023-02-28T15:25:44;5.93;;;3.20;;
34673;SDS011;20879;55.668;37.858;2023-02-28T15:28:15;3.28;;;2.53;;
34673;SDS011;20879;55.668;37.858;2023-02-28T15:30:54;4.00;;;3.15;;
34673;SDS011;20879;55.668;37.858;2023-02-28T15:33:26;3.83;;;3.05;;
34673;SDS011;20879;55.668;37.858;2023-02-28T15:36:06;3.22;;;2.30;;
34673;SDS011;20879;55.668;37.858;2023-02-28T15:38:45;3.05;;;2.55;;
34673;SDS011;20879;55.668;37.858;2023-02-28T15:41:23;5.25;;;2.10;;
34673;SDS011;20879;55.668;37.858;2023-02-28T15:46:53;4.28;;;2.95;;
34673;SDS011;20879;55.668;37.858;2023-02-28T15:49:25;4.05;;;2.97;;
34673;SDS011;20879;55.668;37.858;2023-02-28T15:52:05;5.57;;;3.35;;
34673;SDS011;20879;55.668;37.858;2023-02-28T15:54:34;7.72;;;2.78;;
34673;SDS011;20879;55.668;37.858;2023-02-28T15:57:04;3.05;;;2.03;;
34673;SDS011;20879;55.668;37.858;2023-02-28T15:59:36;2.97;;;2.40;;
34673;SDS011;20879;55.668;37.858;2023-02-28T16:02:13;4.25;;;2.33;;
34673;SDS011;20879;55.668;37.858;2023-02-28T16:04:57;3.65;;;2.72;;
34673;SDS011;20879;55.668;37.858;2023-02-28T16:07:31;3.63;;;2.38;;
34673;SDS011;20879;55.668;37.858;2023-02-28T16:10:08;3.70;;;2.80;;
34673;SDS011;20879;55.668;37.858;2023-02-28T16:12:40;3.22;;;2.50;;
34673;SDS011;20879;55.668;37.858;2023-02-28T16:15:17;2.83;;;1.75;;
34673;SDS011;20879;55.668;37.858;2023-02-28T16:17:53;3.40;;;2.20;;
34673;SDS011;20879;55.668;37.858;2023-02-28T16:20:25;3.35;;;2.65;;
34673;SDS011;20879;55.668;37.858;2023-02-28T16:22:57;3.20;;;2.35;;